createdAt,value
2022-08-10T00:00:39.276Z,50.866802
2022-08-10T00:01:39.335Z,50.866810
2022-08-10T00:02:39.267Z,50.866814
2022-08-10T00:03:39.261Z,50.866764
2022-08-10T00:04:39.254Z,50.866829
2022-08-10T00:05:43.383Z,50.866795
2022-08-10T00:06:40.240Z,50.866764
2022-08-10T00:07:39.220Z,50.866825
2022-08-10T00:08:39.216Z,50.866764
2022-08-10T00:09:50.694Z,50.866787
2022-08-10T00:10:40.197Z,50.866787
2022-08-10T00:11:39.194Z,50.866764
2022-08-10T00:12:53.670Z,50.866737
2022-08-10T00:13:40.178Z,50.866745
2022-08-10T00:14:39.176Z,50.866787
2022-08-10T00:15:52.023Z,50.866798
2022-08-10T00:16:40.152Z,50.866802
2022-08-10T00:17:39.140Z,50.866772
2022-08-10T00:18:39.143Z,50.866772
2022-08-10T00:20:03.162Z,50.866829
2022-08-10T00:20:40.113Z,50.866817
2022-08-10T00:21:39.114Z,50.866753
2022-08-10T00:22:52.826Z,50.866749
2022-08-10T00:23:40.100Z,50.866791
2022-08-10T00:24:43.044Z,50.866745
2022-08-10T00:25:40.079Z,50.866730
2022-08-10T00:27:52.495Z,50.866791
2022-08-10T00:27:52.570Z,50.866806
2022-08-10T00:28:40.054Z,50.866829
2022-08-10T00:29:39.048Z,50.866833
2022-08-10T00:30:39.041Z,50.866814
2022-08-10T00:38:40.216Z,50.866863
2022-08-10T00:39:40.258Z,50.866859
2022-08-10T00:40:40.207Z,50.866882
2022-08-10T00:41:40.193Z,50.866844
2022-08-10T00:42:40.188Z,50.866833
2022-08-10T00:43:40.181Z,50.866825
2022-08-10T00:44:40.186Z,50.866776
2022-08-10T00:45:40.177Z,50.866825
2022-08-10T00:46:40.154Z,50.866791
2022-08-10T00:47:40.146Z,50.866814
2022-08-10T00:48:40.141Z,50.866997
2022-08-10T00:49:40.133Z,50.867176
2022-08-10T00:50:40.123Z,50.867241
2022-08-10T00:51:43.114Z,50.867271
2022-08-10T00:52:41.107Z,50.867271
2022-08-10T00:53:40.093Z,50.867271
2022-08-10T00:54:40.089Z,50.867271
2022-08-10T00:57:12.372Z,50.867271
2022-08-10T00:57:17.038Z,50.867271
2022-08-10T00:57:41.061Z,50.867271
2022-08-10T00:58:40.054Z,50.867271
2022-08-10T00:59:59.138Z,50.867271
2022-08-10T01:00:41.052Z,50.867271
2022-08-10T01:02:09.840Z,50.867298
2022-08-10T01:02:41.130Z,50.867352
2022-08-10T01:04:36.778Z,50.867367
2022-08-10T01:04:59.914Z,50.867447
2022-08-10T01:05:51.227Z,50.867531
2022-08-10T01:06:40.991Z,50.867363
2022-08-10T01:07:39.987Z,50.867176
2022-08-10T01:08:39.980Z,50.866798
2022-08-10T01:09:40.559Z,50.866623
2022-08-10T01:10:40.167Z,50.866516
2022-08-10T01:12:40.981Z,50.866577
2022-08-10T01:12:41.724Z,50.867085
2022-08-10T01:13:40.939Z,50.866756
2022-08-10T01:14:39.929Z,50.866756
2022-08-10T01:15:40.138Z,50.866756
2022-08-10T01:16:39.920Z,50.866756
2022-08-10T01:17:50.207Z,50.866756
2022-08-10T01:18:42.001Z,50.866570
2022-08-10T01:19:39.887Z,50.866539
2022-08-10T01:20:39.879Z,50.866539
2022-08-10T01:21:39.895Z,50.866539
2022-08-10T01:22:40.878Z,50.866539
2022-08-10T01:23:39.857Z,50.866539
2022-08-10T01:24:39.856Z,50.866539
2022-08-10T01:26:10.827Z,50.866734
2022-08-10T01:26:41.148Z,50.866734
2022-08-10T01:27:39.836Z,50.866730
2022-08-10T01:28:39.822Z,50.866924
2022-08-10T01:29:39.812Z,50.866993
2022-08-10T01:30:39.809Z,50.866863
2022-08-10T01:31:39.833Z,50.866798
2022-08-10T01:32:39.788Z,50.866787
2022-08-10T01:33:58.393Z,50.866798
2022-08-10T01:34:40.768Z,50.866741
2022-08-10T01:35:39.762Z,50.866779
2022-08-10T01:36:39.753Z,50.866825
2022-08-10T01:37:39.757Z,50.866924
2022-08-10T01:38:40.569Z,50.866840
2022-08-10T01:39:39.778Z,50.866791
2022-08-10T01:40:39.722Z,50.866772
2022-08-10T01:41:45.579Z,50.866787
2022-08-10T01:42:40.711Z,50.866810
2022-08-10T01:43:39.699Z,50.866825
2022-08-10T01:44:39.680Z,50.866791
2022-08-10T01:45:45.149Z,50.866791
2022-08-10T01:46:40.662Z,50.866806
2022-08-10T01:47:39.678Z,50.866776
2022-08-10T01:48:39.654Z,50.866711
2022-08-10T01:49:39.657Z,50.866737
2022-08-10T01:50:53.213Z,50.866783
2022-08-10T01:51:40.631Z,50.866776
2022-08-10T01:52:39.626Z,50.866760
2022-08-10T01:53:41.022Z,50.866779
2022-08-10T01:54:39.623Z,50.866837
2022-08-10T01:55:39.603Z,50.866787
2022-08-10T01:56:39.609Z,50.866806
2022-08-10T01:57:39.582Z,50.866692
2022-08-10T01:58:39.583Z,50.866718
2022-08-10T01:59:39.575Z,50.866760
2022-08-10T02:00:39.562Z,50.866699
2022-08-10T02:01:39.587Z,50.866734
2022-08-10T02:02:39.542Z,50.866718
2022-08-10T02:04:03.479Z,50.866753
2022-08-10T02:04:40.533Z,50.866699
2022-08-10T02:05:39.522Z,50.866688
2022-08-10T02:06:40.523Z,50.866673
2022-08-10T02:07:39.509Z,50.866714
2022-08-10T02:08:39.504Z,50.866783
2022-08-10T02:09:39.495Z,50.866692
2022-08-10T02:10:39.483Z,50.866688
2022-08-10T02:12:06.254Z,50.866688
2022-08-10T02:12:40.464Z,50.866718
2022-08-10T02:13:39.459Z,50.866653
2022-08-10T02:14:39.462Z,50.866699
2022-08-10T02:15:39.440Z,50.866707
2022-08-10T02:16:40.450Z,50.866749
2022-08-10T02:17:57.712Z,50.866753
2022-08-10T02:18:40.421Z,50.866760
2022-08-10T02:19:39.414Z,50.866776
2022-08-10T02:20:39.413Z,50.866745
2022-08-10T02:21:39.406Z,50.866749
2022-08-10T02:22:40.393Z,50.866756
2022-08-10T02:23:39.379Z,50.866776
2022-08-10T02:24:39.377Z,50.866833
2022-08-10T02:25:41.774Z,50.866795
2022-08-10T02:26:39.353Z,50.866714
2022-08-10T02:27:39.347Z,50.866791
2022-08-10T02:28:39.342Z,50.866848
2022-08-10T02:29:42.362Z,50.866844
2022-08-10T02:30:39.330Z,50.866806
2022-08-10T02:31:39.341Z,50.866882
2022-08-10T02:32:39.614Z,50.866936
2022-08-10T02:33:39.300Z,50.866920
2022-08-10T02:34:40.292Z,50.866997
2022-08-10T02:35:55.146Z,50.867001
2022-08-10T02:36:40.270Z,50.867069
2022-08-10T02:37:39.277Z,50.867058
2022-08-10T02:38:59.118Z,50.867020
2022-08-10T02:39:40.319Z,50.867092
2022-08-10T02:45:02.154Z,50.867172
2022-08-10T02:45:02.455Z,50.866970
2022-08-10T02:45:17.813Z,50.867088
2022-08-10T02:45:24.535Z,50.867035
2022-08-10T02:45:29.225Z,50.867096
2022-08-10T02:45:41.202Z,50.866905
2022-08-10T02:46:39.192Z,50.866886
2022-08-10T02:47:46.615Z,50.866859
2022-08-10T02:48:40.197Z,50.866871
2022-08-10T02:49:39.174Z,50.866764
2022-08-10T02:50:39.169Z,50.866783
2022-08-10T02:52:06.206Z,50.866760
2022-08-10T02:52:40.158Z,50.866673
2022-08-10T02:53:51.734Z,50.866711
2022-08-10T02:54:40.152Z,50.866615
2022-08-10T02:55:39.136Z,50.866447
2022-08-10T02:56:39.132Z,50.866646
2022-08-10T02:58:16.833Z,50.866718
2022-08-10T02:58:40.108Z,50.866837
2022-08-10T02:59:39.970Z,50.866772
2022-08-10T03:00:39.144Z,50.866650
2022-08-10T03:01:39.176Z,50.866669
2022-08-10T03:02:39.079Z,50.866714
2022-08-10T03:03:39.067Z,50.866749
2022-08-10T03:04:55.442Z,50.866879
2022-08-10T03:05:40.054Z,50.866787
2022-08-10T03:06:39.066Z,50.866764
2022-08-10T03:07:43.360Z,50.866745
2022-08-10T03:08:40.031Z,50.866756
2022-08-10T03:09:39.035Z,50.866749
2022-08-10T03:10:39.759Z,50.866734
2022-08-10T03:12:37.805Z,50.866718
2022-08-10T03:12:40.003Z,50.866673
2022-08-10T03:13:38.987Z,50.866734
2022-08-10T03:14:38.985Z,50.866737
2022-08-10T03:15:38.977Z,50.866863
2022-08-10T03:16:38.978Z,50.866753
2022-08-10T03:17:38.976Z,50.866650
2022-08-10T03:18:38.959Z,50.866714
2022-08-10T03:20:35.312Z,50.866692
2022-08-10T03:20:40.352Z,50.866699
2022-08-10T03:21:39.928Z,50.866684
2022-08-10T03:22:38.921Z,50.866726
2022-08-10T03:23:38.914Z,50.866833
2022-08-10T03:24:38.903Z,50.866882
2022-08-10T03:25:38.904Z,50.866772
2022-08-10T03:26:38.887Z,50.866783
2022-08-10T03:27:38.881Z,50.866802
2022-08-10T03:28:38.880Z,50.866726
2022-08-10T03:30:23.405Z,50.866680
2022-08-10T03:30:39.885Z,50.866695
2022-08-10T03:31:40.313Z,50.866699
2022-08-10T03:32:38.843Z,50.866722
2022-08-10T03:33:38.841Z,50.866764
2022-08-10T03:34:38.825Z,50.866718
2022-08-10T03:35:38.830Z,50.866714
2022-08-10T03:36:40.427Z,50.866726
2022-08-10T03:37:39.804Z,50.866726
2022-08-10T03:38:38.799Z,50.866695
2022-08-10T03:39:38.859Z,50.866772
2022-08-10T03:40:45.643Z,50.866787
2022-08-10T03:41:39.803Z,50.866802
2022-08-10T03:42:38.759Z,50.866814
2022-08-10T03:43:38.767Z,50.866821
2022-08-10T03:44:38.742Z,50.866814
2022-08-10T03:45:55.152Z,50.866833
2022-08-10T03:46:39.733Z,50.866852
2022-08-10T03:47:38.725Z,50.866829
2022-08-10T03:48:49.023Z,50.866806
2022-08-10T03:49:39.708Z,50.866810
2022-08-10T03:50:51.520Z,50.866783
2022-08-10T03:51:39.694Z,50.866795
2022-08-10T03:52:38.695Z,50.866791
2022-08-10T03:54:04.941Z,50.866802
2022-08-10T03:54:39.669Z,50.866783
2022-08-10T03:56:30.017Z,50.866730
2022-08-10T03:56:40.657Z,50.866821
2022-08-10T03:57:49.263Z,50.866787
2022-08-10T03:58:39.628Z,50.866768
2022-08-10T03:59:38.628Z,50.866745
2022-08-10T04:00:38.648Z,50.866753
2022-08-10T04:02:44.210Z,50.866768
2022-08-10T04:02:46.314Z,50.866711
2022-08-10T04:03:39.601Z,50.866787
2022-08-10T04:04:38.588Z,50.866783
2022-08-10T04:05:39.146Z,50.866787
2022-08-10T04:06:38.591Z,50.866787
2022-08-10T04:07:38.577Z,50.866844
2022-08-10T04:08:38.564Z,50.866802
2022-08-10T04:09:55.588Z,50.866791
2022-08-10T04:10:39.553Z,50.866798
2022-08-10T04:11:40.555Z,50.866795
2022-08-10T04:12:38.524Z,50.866810
2022-08-10T04:13:38.523Z,50.866821
2022-08-10T04:14:50.683Z,50.866795
2022-08-10T04:15:39.501Z,50.866783
2022-08-10T04:16:38.522Z,50.866749
2022-08-10T04:18:04.446Z,50.866928
2022-08-10T04:18:39.489Z,50.866844
2022-08-10T04:19:38.477Z,50.866837
2022-08-10T04:20:38.468Z,50.866798
2022-08-10T04:21:39.681Z,50.866814
2022-08-10T04:22:38.454Z,50.866810
2022-08-10T04:23:38.441Z,50.866737
2022-08-10T04:24:39.115Z,50.866741
2022-08-10T04:25:38.439Z,50.866791
2022-08-10T04:26:38.427Z,50.866657
2022-08-10T04:27:38.422Z,50.866673
2022-08-10T04:28:38.439Z,50.866730
2022-08-10T04:29:38.409Z,50.866753
2022-08-10T04:30:38.395Z,50.866718
2022-08-10T04:31:38.381Z,50.866692
2022-08-10T04:32:38.378Z,50.866646
2022-08-10T04:33:38.376Z,50.866680
2022-08-10T04:34:38.362Z,50.866608
2022-08-10T04:35:38.360Z,50.866695
2022-08-10T04:36:38.358Z,50.866714
2022-08-10T04:37:47.132Z,50.866772
2022-08-10T04:38:39.336Z,50.866734
2022-08-10T04:39:38.347Z,50.866692
2022-08-10T04:40:38.325Z,50.866646
2022-08-10T04:41:38.314Z,50.866634
2022-08-10T04:42:39.295Z,50.866718
2022-08-10T04:43:38.301Z,50.866669
2022-08-10T04:44:38.283Z,50.866730
2022-08-10T04:45:49.357Z,50.866680
2022-08-10T04:46:56.129Z,50.866783
2022-08-10T04:47:58.054Z,50.866730
2022-08-10T04:48:42.716Z,50.866657
2022-08-10T04:49:54.510Z,50.866737
2022-08-10T04:50:39.246Z,50.866795
2022-08-10T04:51:38.238Z,50.866795
2022-08-10T04:52:38.349Z,50.866562
2022-08-10T04:54:03.957Z,50.866405
2022-08-10T04:54:39.205Z,50.866669
2022-08-10T04:55:38.224Z,50.866844
2022-08-10T04:56:38.239Z,50.866882
2022-08-10T04:57:38.192Z,50.866852
2022-08-10T04:58:38.175Z,50.866699
2022-08-10T04:59:38.174Z,50.866638
2022-08-10T05:00:38.265Z,50.866611
2022-08-10T05:02:22.568Z,50.866753
2022-08-10T05:02:39.183Z,50.867020
2022-08-10T05:04:36.776Z,50.867031
2022-08-10T05:04:39.495Z,50.866955
2022-08-10T05:05:39.113Z,50.866905
2022-08-10T05:06:38.113Z,50.866932
2022-08-10T05:07:53.795Z,50.867069
2022-08-10T05:08:39.091Z,50.866936
2022-08-10T05:10:02.276Z,50.866844
2022-08-10T05:10:39.635Z,50.866730
2022-08-10T05:11:38.063Z,50.866730
2022-08-10T05:12:39.044Z,50.866749
2022-08-10T05:13:38.049Z,50.866688
2022-08-10T05:14:38.038Z,50.866718
2022-08-10T05:15:38.032Z,50.866711
2022-08-10T05:16:38.025Z,50.866730
2022-08-10T05:17:38.025Z,50.866768
2022-08-10T05:18:38.018Z,50.866798
2022-08-10T05:20:04.007Z,50.866882
2022-08-10T05:20:39.001Z,50.866940
2022-08-10T05:22:03.669Z,50.867130
2022-08-10T05:22:39.368Z,50.867073
2022-08-10T05:23:37.976Z,50.867050
2022-08-10T05:24:37.966Z,50.867008
2022-08-10T05:25:38.305Z,50.866970
2022-08-10T05:26:42.288Z,50.867062
2022-08-10T05:27:40.638Z,50.866997
2022-08-10T05:28:37.937Z,50.866825
2022-08-10T05:29:38.306Z,50.866940
2022-08-10T05:38:27.858Z,50.867359
2022-08-10T05:39:59.762Z,50.867317
2022-08-10T05:40:26.631Z,50.867348
2022-08-10T05:41:26.627Z,50.867481
2022-08-10T05:42:27.005Z,50.867416
2022-08-10T05:43:26.611Z,50.867191
2022-08-10T05:44:26.607Z,50.867126
2022-08-10T05:45:26.594Z,50.867249
2022-08-10T05:46:26.591Z,50.867249
2022-08-10T05:47:26.566Z,50.867249
2022-08-10T05:48:55.910Z,50.867229
2022-08-10T05:49:27.573Z,50.867142
2022-08-10T05:50:26.556Z,50.867401
2022-08-10T05:51:26.549Z,50.867424
2022-08-10T05:52:26.562Z,50.867306
2022-08-10T05:54:03.257Z,50.867428
2022-08-10T05:54:27.517Z,50.867424
2022-08-10T05:55:26.510Z,50.866642
2022-08-10T05:56:26.506Z,50.867023
2022-08-10T05:57:27.491Z,50.866920
2022-08-10T05:58:26.498Z,50.866982
2022-08-10T06:00:35.746Z,50.867050
2022-08-10T06:00:37.544Z,50.866604
2022-08-10T06:01:27.480Z,50.866604
2022-08-10T06:02:34.164Z,50.866596
2022-08-10T06:03:27.476Z,50.866604
2022-08-10T06:04:26.459Z,50.866604
2022-08-10T06:05:26.447Z,50.866592
2022-08-10T06:06:26.430Z,50.866573
2022-08-10T06:07:26.441Z,50.866581
2022-08-10T06:08:26.814Z,50.866592
2022-08-10T06:09:26.401Z,50.866642
2022-08-10T06:10:32.346Z,50.866627
2022-08-10T06:12:23.574Z,50.866623
2022-08-10T06:12:29.794Z,50.866661
2022-08-10T06:13:30.332Z,50.866653
2022-08-10T06:14:28.323Z,50.866623
2022-08-10T06:15:50.536Z,50.866608
2022-08-10T06:16:27.346Z,50.866634
2022-08-10T06:17:26.334Z,50.866695
2022-08-10T06:18:26.325Z,50.866745
2022-08-10T06:19:26.337Z,50.866749
2022-08-10T06:20:26.310Z,50.866745
2022-08-10T06:21:26.328Z,50.866741
2022-08-10T06:22:26.373Z,50.866802
2022-08-10T06:23:26.304Z,50.866806
2022-08-10T06:24:30.778Z,50.866776
2022-08-10T06:26:10.065Z,50.866680
2022-08-10T06:26:28.274Z,50.866547
2022-08-10T06:27:34.741Z,50.866619
2022-08-10T06:28:27.262Z,50.866646
2022-08-10T06:29:26.237Z,50.866646
2022-08-10T06:30:26.252Z,50.866634
2022-08-10T06:31:26.230Z,50.866688
2022-08-10T06:32:26.217Z,50.866688
2022-08-10T06:33:26.227Z,50.866650
2022-08-10T06:34:26.199Z,50.866695
2022-08-10T06:35:26.190Z,50.866753
2022-08-10T06:36:26.183Z,50.866730
2022-08-10T06:37:27.168Z,50.866798
2022-08-10T06:38:26.166Z,50.866859
2022-08-10T06:39:34.876Z,50.866821
2022-08-10T06:40:28.201Z,50.866722
2022-08-10T06:41:58.067Z,50.866707
2022-08-10T06:42:27.129Z,50.866718
2022-08-10T06:43:26.124Z,50.866695
2022-08-10T06:44:26.128Z,50.866627
2022-08-10T06:45:26.106Z,50.866642
2022-08-10T06:46:26.103Z,50.866634
2022-08-10T06:47:26.103Z,50.866669
2022-08-10T06:48:26.084Z,50.866669
2022-08-10T06:49:26.074Z,50.866692
2022-08-10T06:50:34.484Z,50.866657
2022-08-10T06:51:27.072Z,50.866684
2022-08-10T06:52:26.054Z,50.866730
2022-08-10T06:53:53.359Z,50.866707
2022-08-10T06:54:27.738Z,50.866699
2022-08-10T06:55:27.345Z,50.866695
2022-08-10T06:56:38.134Z,50.866642
2022-08-10T06:57:27.009Z,50.866673
2022-08-10T06:58:26.864Z,50.866703
2022-08-10T06:59:26.819Z,50.866699
2022-08-10T07:00:32.427Z,50.866707
2022-08-10T07:01:27.071Z,50.866673
2022-08-10T07:02:25.985Z,50.866604
2022-08-10T07:03:25.980Z,50.866615
2022-08-10T07:04:32.501Z,50.866570
2022-08-10T07:05:26.954Z,50.866669
2022-08-10T07:06:25.943Z,50.866688
2022-08-10T07:07:25.947Z,50.866673
2022-08-10T07:08:25.935Z,50.866650
2022-08-10T07:09:25.927Z,50.866646
2022-08-10T07:10:26.269Z,50.866631
2022-08-10T07:11:26.905Z,50.866631
2022-08-10T07:12:25.915Z,50.866623
2022-08-10T07:14:15.458Z,50.866680
2022-08-10T07:14:26.880Z,50.866734
2022-08-10T07:15:59.474Z,50.866722
2022-08-10T07:16:26.873Z,50.866760
2022-08-10T07:17:25.856Z,50.866737
2022-08-10T07:18:25.849Z,50.866726
2022-08-10T07:19:25.840Z,50.866684
2022-08-10T07:20:25.859Z,50.866657
2022-08-10T07:21:25.837Z,50.866642
2022-08-10T07:23:27.033Z,50.866680
2022-08-10T07:23:55.159Z,50.866646
2022-08-10T07:24:26.800Z,50.866703
2022-08-10T07:25:25.798Z,50.866718
2022-08-10T07:26:25.786Z,50.866741
2022-08-10T07:27:25.810Z,50.866718
2022-08-10T07:28:26.778Z,50.866745
2022-08-10T07:29:52.883Z,50.866695
2022-08-10T07:30:27.750Z,50.866631
2022-08-10T07:31:36.846Z,50.866653
2022-08-10T07:32:26.867Z,50.866608
2022-08-10T07:33:25.764Z,50.866592
2022-08-10T07:34:29.195Z,50.866707
2022-08-10T07:35:25.722Z,50.866749
2022-08-10T07:36:25.726Z,50.866749
2022-08-10T07:37:25.716Z,50.866852
2022-08-10T07:38:25.725Z,50.867050
2022-08-10T07:40:02.189Z,50.867146
2022-08-10T07:40:26.810Z,50.867153
2022-08-10T07:41:25.691Z,50.866997
2022-08-10T07:42:25.668Z,50.867031
2022-08-10T07:43:26.776Z,50.866940
2022-08-10T07:44:25.647Z,50.866856
2022-08-10T07:45:25.647Z,50.867054
2022-08-10T07:46:25.646Z,50.867023
2022-08-10T07:47:53.066Z,50.866989
2022-08-10T07:48:27.644Z,50.866978
2022-08-10T07:49:25.677Z,50.867046
2022-08-10T07:50:25.622Z,50.867271
2022-08-10T07:51:25.602Z,50.867462
2022-08-10T07:52:25.599Z,50.867096
2022-08-10T07:53:25.613Z,50.867008
2022-08-10T07:54:25.574Z,50.866966
2022-08-10T07:56:05.895Z,50.866940
2022-08-10T07:56:47.868Z,50.866943
2022-08-10T07:57:31.452Z,50.866726
2022-08-10T07:58:26.572Z,50.866856
2022-08-10T07:59:25.541Z,50.866833
2022-08-10T08:00:25.525Z,50.866959
2022-08-10T08:01:25.538Z,50.866985
2022-08-10T08:02:25.516Z,50.867004
2022-08-10T08:03:25.626Z,50.867077
2022-08-10T08:04:25.503Z,50.866959
2022-08-10T08:05:27.549Z,50.866928
2022-08-10T08:06:26.495Z,50.866917
2022-08-10T08:07:25.474Z,50.866920
2022-08-10T08:08:25.472Z,50.866928
2022-08-10T08:09:25.473Z,50.866928
2022-08-10T08:10:25.451Z,50.867012
2022-08-10T08:11:26.633Z,50.867069
2022-08-10T08:12:25.444Z,50.867065
2022-08-10T08:13:25.431Z,50.867077
2022-08-10T08:14:25.434Z,50.867088
2022-08-10T08:16:20.840Z,50.866989
2022-08-10T08:16:26.424Z,50.866959
2022-08-10T08:17:25.398Z,50.866978
2022-08-10T08:18:26.395Z,50.866993
2022-08-10T08:19:35.451Z,50.866913
2022-08-10T08:20:27.374Z,50.866768
2022-08-10T08:24:02.712Z,50.866680
2022-08-10T08:24:05.538Z,50.866703
2022-08-10T08:24:14.786Z,50.866669
2022-08-10T08:24:32.587Z,50.866795
2022-08-10T08:25:26.339Z,50.866879
2022-08-10T08:26:25.323Z,50.866810
2022-08-10T08:27:26.326Z,50.866829
2022-08-10T08:28:25.304Z,50.866810
2022-08-10T08:29:25.300Z,50.866795
2022-08-10T08:30:27.840Z,50.866798
2022-08-10T08:31:25.294Z,50.866810
2022-08-10T08:32:25.265Z,50.866798
2022-08-10T08:33:42.596Z,50.866783
2022-08-10T08:34:26.262Z,50.866798
2022-08-10T08:35:25.254Z,50.866753
2022-08-10T08:36:25.254Z,50.866783
2022-08-10T08:38:32.172Z,50.866821
2022-08-10T08:38:33.280Z,50.866798
2022-08-10T08:39:26.270Z,50.866894
2022-08-10T08:40:25.214Z,50.866859
2022-08-10T08:41:25.219Z,50.866844
2022-08-10T08:42:25.201Z,50.866795
2022-08-10T08:43:29.701Z,50.866814
2022-08-10T08:44:29.560Z,50.866837
2022-08-10T08:45:26.175Z,50.866856
2022-08-10T08:46:25.171Z,50.866776
2022-08-10T08:48:04.050Z,50.866730
2022-08-10T08:48:26.147Z,50.866745
2022-08-10T08:50:05.554Z,50.866795
2022-08-10T08:50:26.139Z,50.866833
2022-08-10T08:52:07.039Z,50.866833
2022-08-10T08:52:26.128Z,50.866833
2022-08-10T08:53:25.181Z,50.866833
2022-08-10T08:54:26.104Z,50.866833
2022-08-10T08:56:04.021Z,50.866879
2022-08-10T08:56:26.088Z,50.866879
2022-08-10T08:57:49.379Z,50.866879
2022-08-10T08:58:26.079Z,50.866879
2022-08-10T08:59:25.073Z,50.866879
2022-08-10T09:00:25.057Z,50.866879
2022-08-10T09:01:40.573Z,50.866817
2022-08-10T09:02:26.041Z,50.866718
2022-08-10T09:03:28.172Z,50.866722
2022-08-10T09:04:26.024Z,50.866798
2022-08-10T09:05:25.026Z,50.866653
2022-08-10T09:06:25.023Z,50.866688
2022-08-10T09:07:58.955Z,50.866550
2022-08-10T09:08:25.995Z,50.866592
2022-08-10T09:09:24.984Z,50.866600
2022-08-10T09:10:24.983Z,50.866524
2022-08-10T09:11:24.976Z,50.866623
2022-08-10T09:12:24.963Z,50.866558
2022-08-10T09:13:24.965Z,50.866608
2022-08-10T09:14:25.893Z,50.866703
2022-08-10T09:15:40.976Z,50.866695
2022-08-10T09:16:25.933Z,50.866550
2022-08-10T09:17:24.935Z,50.866566
2022-08-10T09:18:24.913Z,50.866699
2022-08-10T09:19:35.061Z,50.866783
2022-08-10T09:20:25.910Z,50.866768
2022-08-10T09:21:24.885Z,50.866749
2022-08-10T09:22:25.879Z,50.866756
2022-08-10T09:24:05.154Z,50.866764
2022-08-10T09:24:25.874Z,50.866711
2022-08-10T09:25:24.858Z,50.866714
2022-08-10T09:26:24.847Z,50.866802
2022-08-10T09:27:24.841Z,50.866795
2022-08-10T09:28:26.634Z,50.866707
2022-08-10T09:29:24.832Z,50.866730
2022-08-10T09:30:28.401Z,50.866718
2022-08-10T09:31:26.173Z,50.866707
2022-08-10T09:36:15.818Z,50.866718
2022-08-10T09:36:24.249Z,50.866749
2022-08-10T09:36:24.604Z,50.866787
2022-08-10T09:36:29.808Z,50.866707
2022-08-10T09:36:32.620Z,50.866772
2022-08-10T09:38:00.793Z,50.866726
2022-08-10T09:38:25.775Z,50.866753
2022-08-10T09:40:12.392Z,50.866779
2022-08-10T09:41:00.641Z,50.866764
2022-08-10T09:41:25.756Z,50.866787
2022-08-10T09:42:24.745Z,50.866810
2022-08-10T09:43:25.321Z,50.866783
2022-08-10T09:44:25.758Z,50.866817
2022-08-10T09:45:24.704Z,50.866756
2022-08-10T09:46:27.566Z,50.866741
2022-08-10T09:47:59.996Z,50.866760
2022-08-10T09:48:25.685Z,50.866688
2022-08-10T09:49:52.932Z,50.866787
2022-08-10T09:50:26.674Z,50.866734
2022-08-10T09:51:44.881Z,50.866722
2022-08-10T09:52:26.670Z,50.866749
2022-08-10T09:53:24.656Z,50.866688
2022-08-10T09:54:24.648Z,50.866776
2022-08-10T09:55:24.629Z,50.866737
2022-08-10T09:56:28.669Z,50.866703
2022-08-10T09:57:44.444Z,50.866665
2022-08-10T09:58:26.597Z,50.866650
2022-08-10T09:59:26.902Z,50.866741
2022-08-10T10:00:25.585Z,50.866714
2022-08-10T10:02:02.470Z,50.866791
2022-08-10T10:02:25.577Z,50.866810
2022-08-10T10:03:26.112Z,50.866791
2022-08-10T10:04:25.575Z,50.866795
2022-08-10T10:05:25.545Z,50.866745
2022-08-10T10:06:24.533Z,50.866718
2022-08-10T10:07:24.529Z,50.866791
2022-08-10T10:08:24.525Z,50.866764
2022-08-10T10:14:02.944Z,50.866779
2022-08-10T10:14:45.961Z,50.866760
2022-08-10T10:15:45.778Z,50.866722
2022-08-10T10:22:53.250Z,50.866756
2022-08-10T10:24:19.964Z,50.866821
2022-08-10T10:24:55.226Z,50.866779
2022-08-10T10:25:56.505Z,50.866810
2022-08-10T10:26:54.225Z,50.866837
2022-08-10T10:27:53.198Z,50.866905
2022-08-10T10:29:58.001Z,50.866905
2022-08-10T10:30:53.342Z,50.866886
2022-08-10T10:31:53.192Z,50.866901
2022-08-10T10:32:57.869Z,50.866875
2022-08-10T10:33:55.153Z,50.866867
2022-08-10T10:34:53.230Z,50.866917
2022-08-10T10:35:54.015Z,50.866882
2022-08-10T10:36:53.165Z,50.866867
2022-08-10T10:38:01.382Z,50.866917
2022-08-10T10:38:54.315Z,50.866959
2022-08-10T10:39:54.244Z,50.867004
2022-08-10T10:40:53.164Z,50.866940
2022-08-10T10:42:03.449Z,50.866890
2022-08-10T10:42:54.436Z,50.866886
2022-08-10T10:43:53.098Z,50.867008
2022-08-10T10:44:53.293Z,50.866955
2022-08-10T10:45:53.270Z,50.866970
2022-08-10T10:46:54.533Z,50.866837
2022-08-10T10:47:54.234Z,50.867023
2022-08-10T10:48:53.198Z,50.867062
2022-08-10T10:49:53.062Z,50.866974
2022-08-10T10:50:53.452Z,50.866924
2022-08-10T10:51:55.519Z,50.866261
2022-08-10T10:52:54.291Z,50.864365
2022-08-10T10:53:52.996Z,50.862648
2022-08-10T10:54:54.565Z,50.862400
2022-08-10T10:56:14.754Z,50.862537
2022-08-10T10:56:54.118Z,50.865482
2022-08-10T10:58:00.401Z,50.866268
2022-08-10T10:58:54.096Z,50.866318
2022-08-10T10:59:55.714Z,50.866440
2022-08-10T11:00:53.645Z,50.866573
2022-08-10T11:01:52.990Z,50.866707
2022-08-10T11:03:26.085Z,50.866737
2022-08-10T11:03:52.912Z,50.866749
2022-08-10T11:04:57.034Z,50.866737
2022-08-10T11:05:53.896Z,50.866688
2022-08-10T11:06:52.916Z,50.866615
2022-08-10T11:07:53.362Z,50.866558
2022-08-10T11:08:54.017Z,50.866627
2022-08-10T11:10:09.205Z,50.866631
2022-08-10T11:10:53.907Z,50.866642
2022-08-10T11:12:01.646Z,50.866619
2022-08-10T11:12:53.894Z,50.866600
2022-08-10T11:14:25.578Z,50.866653
2022-08-10T11:14:53.956Z,50.866695
2022-08-10T11:15:52.830Z,50.866638
2022-08-10T11:16:57.338Z,50.866573
2022-08-10T11:17:54.836Z,50.866562
2022-08-10T11:18:52.804Z,50.866779
2022-08-10T11:20:00.130Z,50.866680
2022-08-10T11:20:53.777Z,50.866711
2022-08-10T11:21:52.787Z,50.866932
2022-08-10T11:22:52.756Z,50.866615
2022-08-10T11:24:44.491Z,50.866325
2022-08-10T11:24:53.744Z,50.866558
2022-08-10T11:25:52.734Z,50.866707
2022-08-10T11:26:52.726Z,50.866692
2022-08-10T11:27:52.713Z,50.866570
2022-08-10T11:28:53.311Z,50.866676
2022-08-10T11:29:52.704Z,50.866756
2022-08-10T11:30:52.701Z,50.866749
2022-08-10T11:31:52.700Z,50.866581
2022-08-10T11:32:52.677Z,50.866486
2022-08-10T11:35:11.256Z,50.866589
2022-08-10T11:35:53.656Z,50.866711
2022-08-10T11:36:52.659Z,50.866776
2022-08-10T11:38:31.616Z,50.866768
2022-08-10T11:39:13.525Z,50.866570
2022-08-10T11:39:54.703Z,50.866589
2022-08-10T11:40:52.628Z,50.866562
2022-08-10T11:42:07.189Z,50.866467
2022-08-10T11:42:53.597Z,50.866482
2022-08-10T11:43:52.585Z,50.866428
2022-08-10T11:44:52.583Z,50.866444
2022-08-10T11:45:54.361Z,50.866524
2022-08-10T11:46:52.568Z,50.866508
2022-08-10T11:47:52.555Z,50.866703
2022-08-10T11:48:57.003Z,50.866680
2022-08-10T11:49:53.536Z,50.866688
2022-08-10T11:50:52.535Z,50.866673
2022-08-10T11:51:52.520Z,50.866703